sensor_id;sensor_type;location;lat;lon;timestamp;P1;durP1;ratioP1;P2;durP2;ratioP2
3817;SDS011;1924;48.078;11.516;2023-11-19T00:00:18;30.00;;;0.80;;
3817;SDS011;1924;48.078;11.516;2023-11-19T00:02:49;29.80;;;0.80;;
3817;SDS011;1924;48.078;11.516;2023-11-19T00:05:25;30.00;;;0.80;;
3817;SDS011;1924;48.078;11.516;2023-11-19T00:07:54;30.10;;;0.80;;
3817;SDS011;1924;48.078;11.516;2023-11-19T05:01:56;33.73;;;0.83;;
3817;SDS011;1924;48.078;11.516;2023-11-19T05:04:23;33.97;;;0.80;;
3817;SDS011;1924;48.078;11.516;2023-11-19T05:06:49;34.07;;;0.90;;
3817;SDS011;1924;48.078;11.516;2023-11-19T05:09:15;34.10;;;0.80;;
3817;SDS011;1924;48.078;11.516;2023-11-19T05:11:43;34.10;;;0.80;;
3817;SDS011;1924;48.078;11.516;2023-11-19T05:14:09;34.40;;;0.80;;
3817;SDS011;1924;48.078;11.516;2023-11-19T05:16:39;34.33;;;0.80;;
3817;SDS011;1924;48.078;11.516;2023-11-19T05:19:07;34.50;;;0.90;;
3817;SDS011;1924;48.078;11.516;2023-11-19T05:21:33;34.43;;;0.90;;
3817;SDS011;1924;48.078;11.516;2023-11-19T05:24:01;34.63;;;0.83;;
3817;SDS011;1924;48.078;11.516;2023-11-19T05:26:29;34.77;;;0.90;;
3817;SDS011;1924;48.078;11.516;2023-11-19T05:28:56;34.87;;;0.90;;
3817;SDS011;1924;48.078;11.516;2023-11-19T05:31:23;34.77;;;0.90;;
3817;SDS011;1924;48.078;11.516;2023-11-19T05:33:50;34.87;;;0.80;;
3817;SDS011;1924;48.078;11.516;2023-11-19T05:36:18;35.10;;;0.80;;
3817;SDS011;1924;48.078;11.516;2023-11-19T05:38:44;35.10;;;0.80;;
3817;SDS011;1924;48.078;11.516;2023-11-19T05:41:11;35.10;;;0.80;;
3817;SDS011;1924;48.078;11.516;2023-11-19T05:43:38;35.00;;;0.90;;
3817;SDS011;1924;48.078;11.516;2023-11-19T05:46:05;35.00;;;0.83;;
3817;SDS011;1924;48.078;11.516;2023-11-19T05:48:32;35.17;;;0.87;;
3817;SDS011;1924;48.078;11.516;2023-11-19T05:50:59;35.33;;;0.80;;
3817;SDS011;1924;48.078;11.516;2023-11-19T05:53:27;35.03;;;0.80;;
3817;SDS011;1924;48.078;11.516;2023-11-19T05:55:54;35.30;;;0.90;;
3817;SDS011;1924;48.078;11.516;2023-11-19T05:58:22;35.43;;;0.83;;
3817;SDS011;1924;48.078;11.516;2023-11-19T06:00:51;35.43;;;0.90;;
3817;SDS011;1924;48.078;11.516;2023-11-19T06:03:18;35.57;;;0.90;;
3817;SDS011;1924;48.078;11.516;2023-11-19T06:05:46;35.57;;;0.90;;
3817;SDS011;1924;48.078;11.516;2023-11-19T06:08:13;35.63;;;0.90;;
3817;SDS011;1924;48.078;11.516;2023-11-19T06:10:41;35.70;;;0.90;;
3817;SDS011;1924;48.078;11.516;2023-11-19T06:13:11;35.60;;;0.90;;
3817;SDS011;1924;48.078;11.516;2023-11-19T06:15:40;35.53;;;0.87;;
3817;SDS011;1924;48.078;11.516;2023-11-19T06:18:07;35.47;;;0.83;;
3817;SDS011;1924;48.078;11.516;2023-11-19T06:20:36;35.70;;;0.83;;
3817;SDS011;1924;48.078;11.516;2023-11-19T06:23:03;35.53;;;0.90;;
3817;SDS011;1924;48.078;11.516;2023-11-19T06:25:30;35.37;;;0.83;;
3817;SDS011;1924;48.078;11.516;2023-11-19T06:27:58;35.57;;;0.83;;
3817;SDS011;1924;48.078;11.516;2023-11-19T06:30:24;35.60;;;0.83;;
3817;SDS011;1924;48.078;11.516;2023-11-19T06:32:53;35.80;;;0.90;;
3817;SDS011;1924;48.078;11.516;2023-11-19T06:35:20;35.53;;;0.83;;
3817;SDS011;1924;48.078;11.516;2023-11-19T06:37:47;35.70;;;0.90;;
3817;SDS011;1924;48.078;11.516;2023-11-19T06:40:13;35.67;;;0.87;;
3817;SDS011;1924;48.078;11.516;2023-11-19T06:42:40;35.70;;;0.90;;
3817;SDS011;1924;48.078;11.516;2023-11-19T06:45:09;35.73;;;0.90;;
3817;SDS011;1924;48.078;11.516;2023-11-19T06:47:36;35.53;;;0.80;;
3817;SDS011;1924;48.078;11.516;2023-11-19T06:50:03;35.53;;;0.80;;
3817;SDS011;1924;48.078;11.516;2023-11-19T06:52:32;35.43;;;0.80;;
3817;SDS011;1924;48.078;11.516;2023-11-19T06:54:59;35.63;;;0.90;;
3817;SDS011;1924;48.078;11.516;2023-11-19T06:57:25;35.57;;;0.80;;
3817;SDS011;1924;48.078;11.516;2023-11-19T06:59:53;35.67;;;0.87;;
3817;SDS011;1924;48.078;11.516;2023-11-19T07:02:21;35.60;;;0.90;;
3817;SDS011;1924;48.078;11.516;2023-11-19T07:04:48;35.67;;;0.80;;
3817;SDS011;1924;48.078;11.516;2023-11-19T07:07:14;35.77;;;0.90;;
3817;SDS011;1924;48.078;11.516;2023-11-19T07:09:41;35.67;;;0.80;;
3817;SDS011;1924;48.078;11.516;2023-11-19T07:12:08;35.80;;;0.87;;
3817;SDS011;1924;48.078;11.516;2023-11-19T07:14:35;35.77;;;0.90;;
3817;SDS011;1924;48.078;11.516;2023-11-19T07:17:02;35.77;;;0.83;;
3817;SDS011;1924;48.078;11.516;2023-11-19T07:19:30;35.80;;;0.90;;
3817;SDS011;1924;48.078;11.516;2023-11-19T07:21:57;35.80;;;0.90;;
3817;SDS011;1924;48.078;11.516;2023-11-19T07:24:24;35.67;;;0.90;;
3817;SDS011;1924;48.078;11.516;2023-11-19T07:26:53;35.70;;;0.80;;
3817;SDS011;1924;48.078;11.516;2023-11-19T07:29:20;35.73;;;0.80;;
3817;SDS011;1924;48.078;11.516;2023-11-19T07:31:48;35.80;;;0.90;;
3817;SDS011;1924;48.078;11.516;2023-11-19T07:34:14;36.00;;;0.90;;
3817;SDS011;1924;48.078;11.516;2023-11-19T07:36:43;35.90;;;0.90;;
3817;SDS011;1924;48.078;11.516;2023-11-19T07:39:09;35.83;;;0.90;;
3817;SDS011;1924;48.078;11.516;2023-11-19T07:41:36;35.90;;;0.90;;
3817;SDS011;1924;48.078;11.516;2023-11-19T07:44:03;35.90;;;0.90;;
3817;SDS011;1924;48.078;11.516;2023-11-19T07:46:31;36.07;;;0.90;;
3817;SDS011;1924;48.078;11.516;2023-11-19T07:48:58;36.00;;;0.90;;
3817;SDS011;1924;48.078;11.516;2023-11-19T07:51:25;36.03;;;0.90;;
3817;SDS011;1924;48.078;11.516;2023-11-19T07:53:53;36.03;;;0.90;;
3817;SDS011;1924;48.078;11.516;2023-11-19T07:56:19;35.93;;;0.83;;
3817;SDS011;1924;48.078;11.516;2023-11-19T07:58:46;35.67;;;0.87;;
3817;SDS011;1924;48.078;11.516;2023-11-19T08:01:13;35.93;;;0.90;;
3817;SDS011;1924;48.078;11.516;2023-11-19T08:03:42;36.10;;;0.80;;
3817;SDS011;1924;48.078;11.516;2023-11-19T08:06:09;36.13;;;0.90;;
3817;SDS011;1924;48.078;11.516;2023-11-19T08:08:35;35.97;;;0.90;;
3817;SDS011;1924;48.078;11.516;2023-11-19T08:11:04;36.17;;;0.90;;
3817;SDS011;1924;48.078;11.516;2023-11-19T08:13:32;36.07;;;0.90;;
3817;SDS011;1924;48.078;11.516;2023-11-19T08:15:59;36.13;;;0.90;;
3817;SDS011;1924;48.078;11.516;2023-11-19T08:18:25;35.97;;;0.90;;
3817;SDS011;1924;48.078;11.516;2023-11-19T08:20:52;36.07;;;0.90;;
3817;SDS011;1924;48.078;11.516;2023-11-19T08:23:21;35.97;;;0.90;;
3817;SDS011;1924;48.078;11.516;2023-11-19T08:25:50;36.30;;;0.87;;
3817;SDS011;1924;48.078;11.516;2023-11-19T08:28:18;36.30;;;0.83;;
3817;SDS011;1924;48.078;11.516;2023-11-19T08:30:45;36.37;;;0.90;;
3817;SDS011;1924;48.078;11.516;2023-11-19T08:33:12;36.47;;;0.90;;
3817;SDS011;1924;48.078;11.516;2023-11-19T08:35:40;36.33;;;0.80;;
3817;SDS011;1924;48.078;11.516;2023-11-19T08:38:06;36.53;;;0.80;;
3817;SDS011;1924;48.078;11.516;2023-11-19T08:40:33;36.63;;;0.80;;
3817;SDS011;1924;48.078;11.516;2023-11-19T08:43:00;36.57;;;0.83;;
3817;SDS011;1924;48.078;11.516;2023-11-19T08:45:28;36.57;;;0.87;;
3817;SDS011;1924;48.078;11.516;2023-11-19T08:47:55;36.27;;;0.80;;
3817;SDS011;1924;48.078;11.516;2023-11-19T08:50:21;36.37;;;0.80;;
3817;SDS011;1924;48.078;11.516;2023-11-19T08:52:49;36.57;;;0.80;;
3817;SDS011;1924;48.078;11.516;2023-11-19T08:55:15;36.57;;;0.80;;
3817;SDS011;1924;48.078;11.516;2023-11-19T08:57:42;36.27;;;0.80;;
3817;SDS011;1924;48.078;11.516;2023-11-19T09:00:09;36.50;;;0.90;;
3817;SDS011;1924;48.078;11.516;2023-11-19T09:02:40;36.27;;;0.80;;
3817;SDS011;1924;48.078;11.516;2023-11-19T09:05:08;36.57;;;0.80;;
3817;SDS011;1924;48.078;11.516;2023-11-19T09:07:34;36.13;;;0.80;;
3817;SDS011;1924;48.078;11.516;2023-11-19T09:10:01;36.57;;;0.83;;
3817;SDS011;1924;48.078;11.516;2023-11-19T09:12:30;36.37;;;0.83;;
3817;SDS011;1924;48.078;11.516;2023-11-19T09:14:57;36.30;;;0.87;;
3817;SDS011;1924;48.078;11.516;2023-11-19T09:17:23;36.17;;;0.90;;
3817;SDS011;1924;48.078;11.516;2023-11-19T09:19:51;35.97;;;0.90;;
3817;SDS011;1924;48.078;11.516;2023-11-19T09:22:18;36.03;;;0.83;;
3817;SDS011;1924;48.078;11.516;2023-11-19T09:24:45;35.87;;;0.90;;
3817;SDS011;1924;48.078;11.516;2023-11-19T09:27:13;35.93;;;0.90;;
3817;SDS011;1924;48.078;11.516;2023-11-19T09:29:40;35.80;;;0.80;;
3817;SDS011;1924;48.078;11.516;2023-11-19T09:32:08;35.93;;;0.80;;
3817;SDS011;1924;48.078;11.516;2023-11-19T09:34:34;35.97;;;0.90;;
3817;SDS011;1924;48.078;11.516;2023-11-19T09:37:02;35.87;;;0.90;;
3817;SDS011;1924;48.078;11.516;2023-11-19T09:39:29;36.10;;;0.83;;
3817;SDS011;1924;48.078;11.516;2023-11-19T09:41:56;36.07;;;0.90;;
3817;SDS011;1924;48.078;11.516;2023-11-19T09:44:23;36.10;;;0.90;;
3817;SDS011;1924;48.078;11.516;2023-11-19T09:46:50;36.00;;;0.90;;
3817;SDS011;1924;48.078;11.516;2023-11-19T09:49:18;35.87;;;0.90;;
3817;SDS011;1924;48.078;11.516;2023-11-19T09:51:48;36.00;;;0.80;;
3817;SDS011;1924;48.078;11.516;2023-11-19T09:54:17;35.93;;;0.87;;
3817;SDS011;1924;48.078;11.516;2023-11-19T09:56:43;36.13;;;0.87;;
3817;SDS011;1924;48.078;11.516;2023-11-19T09:59:10;36.03;;;0.90;;
3817;SDS011;1924;48.078;11.516;2023-11-19T10:01:37;36.03;;;0.90;;
3817;SDS011;1924;48.078;11.516;2023-11-19T10:04:04;36.20;;;0.90;;
3817;SDS011;1924;48.078;11.516;2023-11-19T10:06:33;36.27;;;0.90;;
3817;SDS011;1924;48.078;11.516;2023-11-19T10:09:00;36.00;;;0.83;;
3817;SDS011;1924;48.078;11.516;2023-11-19T10:11:31;36.27;;;0.87;;
3817;SDS011;1924;48.078;11.516;2023-11-19T10:13:58;36.47;;;0.90;;
3817;SDS011;1924;48.078;11.516;2023-11-19T10:16:28;36.47;;;0.83;;
3817;SDS011;1924;48.078;11.516;2023-11-19T10:18:56;36.37;;;0.87;;
3817;SDS011;1924;48.078;11.516;2023-11-19T10:21:23;36.30;;;0.87;;
3817;SDS011;1924;48.078;11.516;2023-11-19T10:23:51;36.60;;;0.90;;
3817;SDS011;1924;48.078;11.516;2023-11-19T10:26:19;36.43;;;0.80;;
3817;SDS011;1924;48.078;11.516;2023-11-19T10:28:48;36.47;;;0.87;;
3817;SDS011;1924;48.078;11.516;2023-11-19T10:31:16;36.67;;;0.90;;
3817;SDS011;1924;48.078;11.516;2023-11-19T10:33:44;36.90;;;0.90;;
3817;SDS011;1924;48.078;11.516;2023-11-19T10:36:11;36.83;;;0.83;;
3817;SDS011;1924;48.078;11.516;2023-11-19T10:38:39;36.43;;;0.90;;
3817;SDS011;1924;48.078;11.516;2023-11-19T10:41:07;36.93;;;0.90;;
3817;SDS011;1924;48.078;11.516;2023-11-19T10:43:42;36.87;;;0.90;;
3817;SDS011;1924;48.078;11.516;2023-11-19T10:46:12;36.87;;;0.90;;
3817;SDS011;1924;48.078;11.516;2023-11-19T10:48:44;36.97;;;0.90;;
3817;SDS011;1924;48.078;11.516;2023-11-19T10:51:10;36.57;;;0.90;;
3817;SDS011;1924;48.078;11.516;2023-11-19T10:53:46;36.60;;;0.90;;
3817;SDS011;1924;48.078;11.516;2023-11-19T10:56:16;36.37;;;0.90;;
3817;SDS011;1924;48.078;11.516;2023-11-19T10:58:46;36.30;;;0.83;;
3817;SDS011;1924;48.078;11.516;2023-11-19T11:01:19;36.57;;;0.90;;
3817;SDS011;1924;48.078;11.516;2023-11-19T11:03:50;36.50;;;0.90;;
3817;SDS011;1924;48.078;11.516;2023-11-19T11:06:19;36.17;;;0.87;;
3817;SDS011;1924;48.078;11.516;2023-11-19T11:08:47;36.27;;;0.83;;
3817;SDS011;1924;48.078;11.516;2023-11-19T11:11:15;36.07;;;0.80;;
3817;SDS011;1924;48.078;11.516;2023-11-19T11:13:42;35.97;;;0.80;;
3817;SDS011;1924;48.078;11.516;2023-11-19T11:16:10;35.77;;;0.90;;
3817;SDS011;1924;48.078;11.516;2023-11-19T11:18:38;35.77;;;0.90;;
3817;SDS011;1924;48.078;11.516;2023-11-19T11:21:06;35.63;;;0.80;;
3817;SDS011;1924;48.078;11.516;2023-11-19T11:23:37;35.67;;;0.80;;
3817;SDS011;1924;48.078;11.516;2023-11-19T11:26:26;35.73;;;0.90;;
3817;SDS011;1924;48.078;11.516;2023-11-19T11:29:09;35.47;;;0.87;;
3817;SDS011;1924;48.078;11.516;2023-11-19T11:31:46;35.77;;;0.80;;
3817;SDS011;1924;48.078;11.516;2023-11-19T11:34:40;35.47;;;0.80;;
3817;SDS011;1924;48.078;11.516;2023-11-19T11:37:20;35.60;;;0.80;;
3817;SDS011;1924;48.078;11.516;2023-11-19T11:39:54;35.57;;;0.87;;
3817;SDS011;1924;48.078;11.516;2023-11-19T11:42:31;35.37;;;0.80;;
3817;SDS011;1924;48.078;11.516;2023-11-19T11:45:02;35.40;;;0.80;;
3817;SDS011;1924;48.078;11.516;2023-11-19T11:50:48;35.20;;;0.80;;
3817;SDS011;1924;48.078;11.516;2023-11-19T11:53:17;35.07;;;0.80;;
3817;SDS011;1924;48.078;11.516;2023-11-19T11:55:57;35.17;;;0.80;;
3817;SDS011;1924;48.078;11.516;2023-11-19T11:58:25;35.13;;;0.80;;
3817;SDS011;1924;48.078;11.516;2023-11-19T12:00:56;34.87;;;0.80;;
3817;SDS011;1924;48.078;11.516;2023-11-19T12:03:26;34.93;;;0.80;;
3817;SDS011;1924;48.078;11.516;2023-11-19T12:05:55;34.87;;;0.80;;
3817;SDS011;1924;48.078;11.516;2023-11-19T12:08:26;34.87;;;0.80;;
3817;SDS011;1924;48.078;11.516;2023-11-19T12:10:55;35.07;;;0.80;;
3817;SDS011;1924;48.078;11.516;2023-11-19T12:13:24;35.10;;;0.80;;
3817;SDS011;1924;48.078;11.516;2023-11-19T12:16:08;34.80;;;0.80;;
3817;SDS011;1924;48.078;11.516;2023-11-19T12:18:35;34.87;;;0.80;;
3817;SDS011;1924;48.078;11.516;2023-11-19T12:21:06;35.07;;;0.80;;
3817;SDS011;1924;48.078;11.516;2023-11-19T12:23:34;34.87;;;0.80;;
3817;SDS011;1924;48.078;11.516;2023-11-19T12:26:02;35.10;;;0.80;;
3817;SDS011;1924;48.078;11.516;2023-11-19T12:28:29;34.93;;;0.80;;
3817;SDS011;1924;48.078;11.516;2023-11-19T12:31:07;34.83;;;0.80;;
3817;SDS011;1924;48.078;11.516;2023-11-19T12:33:35;34.83;;;0.80;;
3817;SDS011;1924;48.078;11.516;2023-11-19T12:36:03;35.20;;;0.80;;
3817;SDS011;1924;48.078;11.516;2023-11-19T12:38:32;35.03;;;0.80;;
3817;SDS011;1924;48.078;11.516;2023-11-19T12:41:05;35.27;;;0.90;;
3817;SDS011;1924;48.078;11.516;2023-11-19T12:43:32;34.87;;;0.83;;
3817;SDS011;1924;48.078;11.516;2023-11-19T12:46:01;34.93;;;0.80;;
3817;SDS011;1924;48.078;11.516;2023-11-19T12:48:28;34.90;;;0.80;;
3817;SDS011;1924;48.078;11.516;2023-11-19T12:50:55;34.73;;;0.80;;
3817;SDS011;1924;48.078;11.516;2023-11-19T12:53:23;34.50;;;0.80;;
3817;SDS011;1924;48.078;11.516;2023-11-19T12:55:52;34.77;;;0.80;;
3817;SDS011;1924;48.078;11.516;2023-11-19T12:58:29;34.47;;;0.80;;
3817;SDS011;1924;48.078;11.516;2023-11-19T13:01:00;34.43;;;0.87;;
3817;SDS011;1924;48.078;11.516;2023-11-19T13:03:30;34.47;;;0.80;;
3817;SDS011;1924;48.078;11.516;2023-11-19T13:06:03;34.57;;;0.80;;
3817;SDS011;1924;48.078;11.516;2023-11-19T13:08:35;34.60;;;0.80;;
3817;SDS011;1924;48.078;11.516;2023-11-19T13:11:05;34.43;;;0.80;;
3817;SDS011;1924;48.078;11.516;2023-11-19T13:13:33;34.67;;;0.80;;
3817;SDS011;1924;48.078;11.516;2023-11-19T13:16:20;34.37;;;0.80;;
3817;SDS011;1924;48.078;11.516;2023-11-19T13:18:47;34.33;;;0.80;;
3817;SDS011;1924;48.078;11.516;2023-11-19T13:21:13;34.30;;;0.80;;
3817;SDS011;1924;48.078;11.516;2023-11-19T13:23:40;34.43;;;0.80;;
3817;SDS011;1924;48.078;11.516;2023-11-19T13:26:09;34.33;;;0.80;;
3817;SDS011;1924;48.078;11.516;2023-11-19T13:28:35;34.37;;;0.80;;
3817;SDS011;1924;48.078;11.516;2023-11-19T13:31:02;34.07;;;0.80;;
3817;SDS011;1924;48.078;11.516;2023-11-19T13:33:30;34.30;;;0.80;;
3817;SDS011;1924;48.078;11.516;2023-11-19T13:35:56;34.03;;;0.80;;
3817;SDS011;1924;48.078;11.516;2023-11-19T13:38:24;34.10;;;0.80;;
3817;SDS011;1924;48.078;11.516;2023-11-19T13:40:51;34.10;;;0.80;;
3817;SDS011;1924;48.078;11.516;2023-11-19T13:43:20;34.10;;;0.80;;
3817;SDS011;1924;48.078;11.516;2023-11-19T13:45:46;33.70;;;0.80;;
3817;SDS011;1924;48.078;11.516;2023-11-19T13:48:13;34.10;;;0.80;;
3817;SDS011;1924;48.078;11.516;2023-11-19T13:50:40;33.93;;;0.80;;
3817;SDS011;1924;48.078;11.516;2023-11-19T13:53:07;33.80;;;0.80;;
3817;SDS011;1924;48.078;11.516;2023-11-19T13:55:33;33.87;;;0.80;;
3817;SDS011;1924;48.078;11.516;2023-11-19T13:58:00;33.90;;;0.80;;
3817;SDS011;1924;48.078;11.516;2023-11-19T14:00:28;33.77;;;0.80;;
3817;SDS011;1924;48.078;11.516;2023-11-19T14:02:55;33.97;;;0.80;;
3817;SDS011;1924;48.078;11.516;2023-11-19T14:05:22;33.87;;;0.80;;
3817;SDS011;1924;48.078;11.516;2023-11-19T14:07:49;33.80;;;0.80;;
3817;SDS011;1924;48.078;11.516;2023-11-19T14:10:17;33.67;;;0.80;;
3817;SDS011;1924;48.078;11.516;2023-11-19T14:12:44;33.90;;;0.80;;
3817;SDS011;1924;48.078;11.516;2023-11-19T14:15:11;33.57;;;0.80;;
3817;SDS011;1924;48.078;11.516;2023-11-19T14:17:40;33.67;;;0.80;;
3817;SDS011;1924;48.078;11.516;2023-11-19T14:20:07;33.67;;;0.80;;
3817;SDS011;1924;48.078;11.516;2023-11-19T14:22:38;33.73;;;0.80;;
3817;SDS011;1924;48.078;11.516;2023-11-19T14:25:05;33.87;;;0.80;;
3817;SDS011;1924;48.078;11.516;2023-11-19T14:27:34;33.73;;;0.80;;
3817;SDS011;1924;48.078;11.516;2023-11-19T14:30:01;33.73;;;0.80;;
3817;SDS011;1924;48.078;11.516;2023-11-19T14:32:30;33.57;;;0.80;;
3817;SDS011;1924;48.078;11.516;2023-11-19T14:34:58;33.70;;;0.80;;
3817;SDS011;1924;48.078;11.516;2023-11-19T14:37:25;33.57;;;0.80;;
3817;SDS011;1924;48.078;11.516;2023-11-19T14:39:52;33.63;;;0.80;;
3817;SDS011;1924;48.078;11.516;2023-11-19T14:42:18;33.67;;;0.80;;
3817;SDS011;1924;48.078;11.516;2023-11-19T14:44:45;33.70;;;0.80;;
3817;SDS011;1924;48.078;11.516;2023-11-19T14:47:12;33.70;;;0.80;;
3817;SDS011;1924;48.078;11.516;2023-11-19T14:49:39;33.60;;;0.80;;
3817;SDS011;1924;48.078;11.516;2023-11-19T14:52:07;33.80;;;0.80;;
3817;SDS011;1924;48.078;11.516;2023-11-19T14:54:35;33.37;;;0.80;;
3817;SDS011;1924;48.078;11.516;2023-11-19T14:57:01;33.50;;;0.80;;
3817;SDS011;1924;48.078;11.516;2023-11-19T14:59:28;33.57;;;0.80;;
3817;SDS011;1924;48.078;11.516;2023-11-19T15:01:55;33.63;;;0.80;;
3817;SDS011;1924;48.078;11.516;2023-11-19T15:04:22;33.67;;;0.80;;
3817;SDS011;1924;48.078;11.516;2023-11-19T15:06:49;33.47;;;0.80;;
3817;SDS011;1924;48.078;11.516;2023-11-19T15:09:17;33.50;;;0.80;;
3817;SDS011;1924;48.078;11.516;2023-11-19T15:11:44;33.60;;;0.80;;
3817;SDS011;1924;48.078;11.516;2023-11-19T15:14:11;33.23;;;0.80;;
3817;SDS011;1924;48.078;11.516;2023-11-19T15:16:39;33.27;;;0.80;;
3817;SDS011;1924;48.078;11.516;2023-11-19T15:19:06;33.50;;;0.80;;
3817;SDS011;1924;48.078;11.516;2023-11-19T15:21:33;33.33;;;0.80;;
3817;SDS011;1924;48.078;11.516;2023-11-19T15:24:00;33.40;;;0.80;;
3817;SDS011;1924;48.078;11.516;2023-11-19T15:26:30;33.03;;;0.80;;
3817;SDS011;1924;48.078;11.516;2023-11-19T15:28:57;33.37;;;0.80;;
3817;SDS011;1924;48.078;11.516;2023-11-19T15:31:24;33.47;;;0.80;;
3817;SDS011;1924;48.078;11.516;2023-11-19T15:33:51;33.37;;;0.80;;
3817;SDS011;1924;48.078;11.516;2023-11-19T15:36:18;33.07;;;0.80;;
3817;SDS011;1924;48.078;11.516;2023-11-19T15:38:44;33.40;;;0.80;;
3817;SDS011;1924;48.078;11.516;2023-11-19T15:41:11;33.40;;;0.80;;
3817;SDS011;1924;48.078;11.516;2023-11-19T15:43:40;33.27;;;0.80;;
3817;SDS011;1924;48.078;11.516;2023-11-19T15:46:07;33.40;;;0.80;;
3817;SDS011;1924;48.078;11.516;2023-11-19T15:48:34;33.27;;;0.80;;
3817;SDS011;1924;48.078;11.516;2023-11-19T15:51:01;33.17;;;0.80;;
3817;SDS011;1924;48.078;11.516;2023-11-19T15:53:28;33.30;;;0.80;;
3817;SDS011;1924;48.078;11.516;2023-11-19T15:55:55;33.20;;;0.80;;
3817;SDS011;1924;48.078;11.516;2023-11-19T15:58:22;33.27;;;0.80;;
3817;SDS011;1924;48.078;11.516;2023-11-19T16:00:50;33.23;;;0.80;;
3817;SDS011;1924;48.078;11.516;2023-11-19T16:03:17;33.20;;;0.80;;
3817;SDS011;1924;48.078;11.516;2023-11-19T16:05:44;33.10;;;0.80;;
3817;SDS011;1924;48.078;11.516;2023-11-19T16:08:11;33.23;;;0.80;;
3817;SDS011;1924;48.078;11.516;2023-11-19T16:10:37;33.20;;;0.80;;
3817;SDS011;1924;48.078;11.516;2023-11-19T16:13:07;33.10;;;0.80;;
3817;SDS011;1924;48.078;11.516;2023-11-19T16:15:34;33.27;;;0.80;;
3817;SDS011;1924;48.078;11.516;2023-11-19T16:18:02;33.27;;;0.80;;
3817;SDS011;1924;48.078;11.516;2023-11-19T16:20:29;33.20;;;0.80;;
3817;SDS011;1924;48.078;11.516;2023-11-19T16:22:58;33.30;;;0.80;;
3817;SDS011;1924;48.078;11.516;2023-11-19T16:25:25;33.17;;;0.80;;
3817;SDS011;1924;48.078;11.516;2023-11-19T16:27:52;33.30;;;0.80;;
3817;SDS011;1924;48.078;11.516;2023-11-19T16:30:21;33.10;;;0.80;;
3817;SDS011;1924;48.078;11.516;2023-11-19T16:32:50;33.07;;;0.80;;
3817;SDS011;1924;48.078;11.516;2023-11-19T16:35:20;33.20;;;0.80;;
3817;SDS011;1924;48.078;11.516;2023-11-19T16:37:47;33.37;;;0.80;;
3817;SDS011;1924;48.078;11.516;2023-11-19T16:40:14;33.30;;;0.80;;
3817;SDS011;1924;48.078;11.516;2023-11-19T16:42:42;33.10;;;0.80;;
3817;SDS011;1924;48.078;11.516;2023-11-19T16:45:11;33.40;;;0.80;;
3817;SDS011;1924;48.078;11.516;2023-11-19T16:47:38;33.30;;;0.80;;
3817;SDS011;1924;48.078;11.516;2023-11-19T16:50:05;33.37;;;0.80;;
3817;SDS011;1924;48.078;11.516;2023-11-19T16:52:34;33.40;;;0.80;;
3817;SDS011;1924;48.078;11.516;2023-11-19T16:55:01;33.43;;;0.80;;
3817;SDS011;1924;48.078;11.516;2023-11-19T16:57:31;33.50;;;0.80;;
3817;SDS011;1924;48.078;11.516;2023-11-19T16:59:58;33.23;;;0.80;;
3817;SDS011;1924;48.078;11.516;2023-11-19T17:02:25;33.50;;;0.80;;
3817;SDS011;1924;48.078;11.516;2023-11-19T17:04:52;33.50;;;0.80;;
3817;SDS011;1924;48.078;11.516;2023-11-19T17:07:18;33.30;;;0.80;;
3817;SDS011;1924;48.078;11.516;2023-11-19T17:09:46;33.27;;;0.80;;
3817;SDS011;1924;48.078;11.516;2023-11-19T17:12:13;33.30;;;0.80;;
3817;SDS011;1924;48.078;11.516;2023-11-19T17:14:40;33.07;;;0.80;;
3817;SDS011;1924;48.078;11.516;2023-11-19T17:17:06;33.23;;;0.80;;
3817;SDS011;1924;48.078;11.516;2023-11-19T17:19:33;33.10;;;0.80;;
3817;SDS011;1924;48.078;11.516;2023-11-19T17:22:00;33.20;;;0.80;;
3817;SDS011;1924;48.078;11.516;2023-11-19T17:24:28;33.13;;;0.80;;
3817;SDS011;1924;48.078;11.516;2023-11-19T17:26:56;33.10;;;0.80;;
3817;SDS011;1924;48.078;11.516;2023-11-19T17:29:22;33.17;;;0.80;;
3817;SDS011;1924;48.078;11.516;2023-11-19T17:31:49;33.10;;;0.80;;
3817;SDS011;1924;48.078;11.516;2023-11-19T17:34:16;33.07;;;0.80;;
3817;SDS011;1924;48.078;11.516;2023-11-19T17:36:43;33.10;;;0.80;;
3817;SDS011;1924;48.078;11.516;2023-11-19T17:39:11;32.93;;;0.80;;
3817;SDS011;1924;48.078;11.516;2023-11-19T17:41:37;32.97;;;0.80;;
3817;SDS011;1924;48.078;11.516;2023-11-19T17:44:06;33.20;;;0.80;;
3817;SDS011;1924;48.078;11.516;2023-11-19T17:46:32;33.00;;;0.80;;
3817;SDS011;1924;48.078;11.516;2023-11-19T17:48:59;33.10;;;0.80;;
3817;SDS011;1924;48.078;11.516;2023-11-19T17:51:26;33.10;;;0.80;;
3817;SDS011;1924;48.078;11.516;2023-11-19T17:53:53;33.10;;;0.80;;
3817;SDS011;1924;48.078;11.516;2023-11-19T17:56:20;33.07;;;0.80;;
3817;SDS011;1924;48.078;11.516;2023-11-19T17:58:46;33.10;;;0.80;;
3817;SDS011;1924;48.078;11.516;2023-11-19T18:01:16;32.93;;;0.80;;
3817;SDS011;1924;48.078;11.516;2023-11-19T18:03:43;32.90;;;0.80;;
3817;SDS011;1924;48.078;11.516;2023-11-19T18:06:14;32.83;;;0.80;;
3817;SDS011;1924;48.078;11.516;2023-11-19T18:08:43;32.97;;;0.80;;
3817;SDS011;1924;48.078;11.516;2023-11-19T18:11:11;32.77;;;0.80;;
3817;SDS011;1924;48.078;11.516;2023-11-19T18:13:38;32.90;;;0.80;;
3817;SDS011;1924;48.078;11.516;2023-11-19T18:16:05;32.93;;;0.80;;
3817;SDS011;1924;48.078;11.516;2023-11-19T18:18:34;33.00;;;0.80;;
3817;SDS011;1924;48.078;11.516;2023-11-19T18:21:00;33.00;;;0.80;;
3817;SDS011;1924;48.078;11.516;2023-11-19T18:23:27;32.77;;;0.80;;
3817;SDS011;1924;48.078;11.516;2023-11-19T18:25:55;32.67;;;0.80;;
3817;SDS011;1924;48.078;11.516;2023-11-19T18:28:22;32.93;;;0.80;;
3817;SDS011;1924;48.078;11.516;2023-11-19T18:30:49;32.90;;;0.80;;
3817;SDS011;1924;48.078;11.516;2023-11-19T18:33:16;33.20;;;0.80;;
3817;SDS011;1924;48.078;11.516;2023-11-19T18:35:44;32.87;;;0.80;;
3817;SDS011;1924;48.078;11.516;2023-11-19T18:38:11;33.10;;;0.80;;
3817;SDS011;1924;48.078;11.516;2023-11-19T18:40:38;32.90;;;0.80;;
3817;SDS011;1924;48.078;11.516;2023-11-19T18:43:05;32.90;;;0.80;;
3817;SDS011;1924;48.078;11.516;2023-11-19T18:45:32;32.73;;;0.80;;
3817;SDS011;1924;48.078;11.516;2023-11-19T18:47:59;32.80;;;0.80;;
3817;SDS011;1924;48.078;11.516;2023-11-19T18:50:25;32.83;;;0.80;;
3817;SDS011;1924;48.078;11.516;2023-11-19T18:52:55;32.77;;;0.80;;
3817;SDS011;1924;48.078;11.516;2023-11-19T18:55:22;32.90;;;0.80;;
3817;SDS011;1924;48.078;11.516;2023-11-19T18:57:49;32.90;;;0.80;;
3817;SDS011;1924;48.078;11.516;2023-11-19T19:00:16;32.80;;;0.80;;
3817;SDS011;1924;48.078;11.516;2023-11-19T19:02:43;32.97;;;0.80;;
3817;SDS011;1924;48.078;11.516;2023-11-19T19:05:15;32.70;;;0.80;;
3817;SDS011;1924;48.078;11.516;2023-11-19T19:07:42;32.80;;;0.80;;
3817;SDS011;1924;48.078;11.516;2023-11-19T19:10:10;32.70;;;0.80;;
3817;SDS011;1924;48.078;11.516;2023-11-19T19:12:38;32.80;;;0.80;;
3817;SDS011;1924;48.078;11.516;2023-11-19T19:15:07;32.80;;;0.80;;
3817;SDS011;1924;48.078;11.516;2023-11-19T19:17:36;32.83;;;0.80;;
3817;SDS011;1924;48.078;11.516;2023-11-19T19:20:03;32.63;;;0.80;;
3817;SDS011;1924;48.078;11.516;2023-11-19T19:22:32;32.70;;;0.80;;
3817;SDS011;1924;48.078;11.516;2023-11-19T19:24:59;32.60;;;0.80;;
3817;SDS011;1924;48.078;11.516;2023-11-19T19:27:27;32.57;;;0.80;;
3817;SDS011;1924;48.078;11.516;2023-11-19T19:29:54;32.70;;;0.80;;
3817;SDS011;1924;48.078;11.516;2023-11-19T19:32:20;32.67;;;0.80;;
3817;SDS011;1924;48.078;11.516;2023-11-19T19:34:48;32.60;;;0.80;;
3817;SDS011;1924;48.078;11.516;2023-11-19T19:37:15;32.57;;;0.80;;
3817;SDS011;1924;48.078;11.516;2023-11-19T19:39:41;32.63;;;0.80;;
3817;SDS011;1924;48.078;11.516;2023-11-19T19:42:08;32.80;;;0.80;;
3817;SDS011;1924;48.078;11.516;2023-11-19T19:44:36;32.57;;;0.80;;
3817;SDS011;1924;48.078;11.516;2023-11-19T19:47:03;32.70;;;0.80;;